sensor_id;sensor_type;location;lat;lon;timestamp;P1;durP1;ratioP1;P2;durP2;ratioP2
11933;SDS011;6026;48.784;9.198;2024-01-25T00:01:41;0.57;;;0.57;;
11933;SDS011;6026;48.784;9.198;2024-01-25T00:04:07;0.40;;;0.40;;
11933;SDS011;6026;48.784;9.198;2024-01-25T00:06:33;0.50;;;0.50;;
11933;SDS011;6026;48.784;9.198;2024-01-25T00:08:59;0.50;;;0.50;;
11933;SDS011;6026;48.784;9.198;2024-01-25T00:11:25;0.67;;;0.67;;
11933;SDS011;6026;48.784;9.198;2024-01-25T00:13:51;0.70;;;0.70;;
11933;SDS011;6026;48.784;9.198;2024-01-25T00:16:17;0.57;;;0.57;;
11933;SDS011;6026;48.784;9.198;2024-01-25T00:18:42;0.43;;;0.43;;
11933;SDS011;6026;48.784;9.198;2024-01-25T00:21:08;0.50;;;0.50;;
11933;SDS011;6026;48.784;9.198;2024-01-25T00:23:33;0.60;;;0.60;;
11933;SDS011;6026;48.784;9.198;2024-01-25T00:25:59;0.60;;;0.60;;
11933;SDS011;6026;48.784;9.198;2024-01-25T00:28:25;0.50;;;0.50;;
11933;SDS011;6026;48.784;9.198;2024-01-25T00:30:51;0.60;;;0.60;;
11933;SDS011;6026;48.784;9.198;2024-01-25T00:33:17;0.73;;;0.73;;
11933;SDS011;6026;48.784;9.198;2024-01-25T00:35:43;0.53;;;0.53;;
11933;SDS011;6026;48.784;9.198;2024-01-25T00:38:08;0.60;;;0.60;;
11933;SDS011;6026;48.784;9.198;2024-01-25T00:40:34;0.50;;;0.50;;
11933;SDS011;6026;48.784;9.198;2024-01-25T00:43:00;0.60;;;0.60;;
11933;SDS011;6026;48.784;9.198;2024-01-25T00:45:26;0.47;;;0.47;;
11933;SDS011;6026;48.784;9.198;2024-01-25T00:47:52;0.50;;;0.50;;
11933;SDS011;6026;48.784;9.198;2024-01-25T00:50:18;0.40;;;0.40;;
11933;SDS011;6026;48.784;9.198;2024-01-25T00:52:48;0.70;;;0.70;;
11933;SDS011;6026;48.784;9.198;2024-01-25T00:55:15;0.50;;;0.50;;
11933;SDS011;6026;48.784;9.198;2024-01-25T00:57:41;0.50;;;0.50;;
11933;SDS011;6026;48.784;9.198;2024-01-25T01:00:07;0.40;;;0.40;;
11933;SDS011;6026;48.784;9.198;2024-01-25T01:02:35;0.50;;;0.50;;
11933;SDS011;6026;48.784;9.198;2024-01-25T01:05:04;0.50;;;0.50;;
11933;SDS011;6026;48.784;9.198;2024-01-25T01:07:30;0.50;;;0.50;;
11933;SDS011;6026;48.784;9.198;2024-01-25T01:09:56;0.47;;;0.47;;
11933;SDS011;6026;48.784;9.198;2024-01-25T01:12:21;0.50;;;0.50;;
11933;SDS011;6026;48.784;9.198;2024-01-25T01:14:47;0.63;;;0.63;;
11933;SDS011;6026;48.784;9.198;2024-01-25T01:17:13;0.60;;;0.60;;
11933;SDS011;6026;48.784;9.198;2024-01-25T01:19:38;0.40;;;0.40;;
11933;SDS011;6026;48.784;9.198;2024-01-25T01:22:04;0.50;;;0.50;;
11933;SDS011;6026;48.784;9.198;2024-01-25T01:24:29;0.40;;;0.40;;
11933;SDS011;6026;48.784;9.198;2024-01-25T01:26:55;0.47;;;0.47;;
11933;SDS011;6026;48.784;9.198;2024-01-25T01:29:21;0.50;;;0.50;;
11933;SDS011;6026;48.784;9.198;2024-01-25T01:31:46;0.60;;;0.60;;
11933;SDS011;6026;48.784;9.198;2024-01-25T01:34:12;0.43;;;0.43;;
11933;SDS011;6026;48.784;9.198;2024-01-25T01:36:38;0.50;;;0.50;;
11933;SDS011;6026;48.784;9.198;2024-01-25T01:39:04;0.30;;;0.30;;
11933;SDS011;6026;48.784;9.198;2024-01-25T01:41:31;0.60;;;0.60;;
11933;SDS011;6026;48.784;9.198;2024-01-25T01:43:56;0.50;;;0.50;;
11933;SDS011;6026;48.784;9.198;2024-01-25T01:46:31;0.70;;;0.70;;
11933;SDS011;6026;48.784;9.198;2024-01-25T01:49:03;0.60;;;0.60;;
11933;SDS011;6026;48.784;9.198;2024-01-25T01:51:29;0.50;;;0.50;;
11933;SDS011;6026;48.784;9.198;2024-01-25T01:53:56;0.30;;;0.30;;
11933;SDS011;6026;48.784;9.198;2024-01-25T01:56:23;0.60;;;0.60;;
11933;SDS011;6026;48.784;9.198;2024-01-25T01:58:51;0.67;;;0.67;;
11933;SDS011;6026;48.784;9.198;2024-01-25T02:01:18;0.70;;;0.70;;
11933;SDS011;6026;48.784;9.198;2024-01-25T02:03:45;0.50;;;0.50;;
11933;SDS011;6026;48.784;9.198;2024-01-25T02:06:11;0.50;;;0.50;;
11933;SDS011;6026;48.784;9.198;2024-01-25T02:08:37;0.50;;;0.50;;
11933;SDS011;6026;48.784;9.198;2024-01-25T02:11:02;0.47;;;0.47;;
11933;SDS011;6026;48.784;9.198;2024-01-25T02:13:28;0.60;;;0.60;;
11933;SDS011;6026;48.784;9.198;2024-01-25T02:15:53;0.60;;;0.60;;
11933;SDS011;6026;48.784;9.198;2024-01-25T02:18:19;0.50;;;0.50;;
11933;SDS011;6026;48.784;9.198;2024-01-25T02:20:45;0.53;;;0.53;;
11933;SDS011;6026;48.784;9.198;2024-01-25T02:23:10;0.40;;;0.40;;
11933;SDS011;6026;48.784;9.198;2024-01-25T02:25:36;0.43;;;0.43;;
11933;SDS011;6026;48.784;9.198;2024-01-25T02:28:01;0.50;;;0.50;;
11933;SDS011;6026;48.784;9.198;2024-01-25T02:30:27;0.50;;;0.50;;
11933;SDS011;6026;48.784;9.198;2024-01-25T02:32:52;0.30;;;0.30;;
11933;SDS011;6026;48.784;9.198;2024-01-25T02:35:18;0.47;;;0.47;;
11933;SDS011;6026;48.784;9.198;2024-01-25T02:37:43;0.40;;;0.40;;
11933;SDS011;6026;48.784;9.198;2024-01-25T02:40:09;0.43;;;0.43;;
11933;SDS011;6026;48.784;9.198;2024-01-25T02:42:35;0.50;;;0.50;;
11933;SDS011;6026;48.784;9.198;2024-01-25T02:45:01;0.60;;;0.60;;
11933;SDS011;6026;48.784;9.198;2024-01-25T02:47:26;0.60;;;0.60;;
11933;SDS011;6026;48.784;9.198;2024-01-25T02:49:52;0.43;;;0.43;;
11933;SDS011;6026;48.784;9.198;2024-01-25T02:52:17;0.70;;;0.70;;
11933;SDS011;6026;48.784;9.198;2024-01-25T02:54:43;0.70;;;0.70;;
11933;SDS011;6026;48.784;9.198;2024-01-25T02:57:09;0.60;;;0.60;;
11933;SDS011;6026;48.784;9.198;2024-01-25T02:59:35;0.60;;;0.60;;
11933;SDS011;6026;48.784;9.198;2024-01-25T03:02:01;0.70;;;0.70;;
11933;SDS011;6026;48.784;9.198;2024-01-25T03:04:26;0.50;;;0.50;;
11933;SDS011;6026;48.784;9.198;2024-01-25T03:06:52;0.50;;;0.50;;
11933;SDS011;6026;48.784;9.198;2024-01-25T03:09:17;0.50;;;0.50;;
11933;SDS011;6026;48.784;9.198;2024-01-25T03:11:43;0.50;;;0.50;;
11933;SDS011;6026;48.784;9.198;2024-01-25T03:14:08;0.60;;;0.60;;
11933;SDS011;6026;48.784;9.198;2024-01-25T03:16:34;0.40;;;0.40;;
11933;SDS011;6026;48.784;9.198;2024-01-25T03:18:59;0.60;;;0.60;;
11933;SDS011;6026;48.784;9.198;2024-01-25T03:21:25;0.50;;;0.50;;
11933;SDS011;6026;48.784;9.198;2024-01-25T03:23:51;0.50;;;0.50;;
11933;SDS011;6026;48.784;9.198;2024-01-25T03:26:16;0.60;;;0.60;;
11933;SDS011;6026;48.784;9.198;2024-01-25T03:28:42;0.53;;;0.53;;
11933;SDS011;6026;48.784;9.198;2024-01-25T03:31:08;0.60;;;0.60;;
11933;SDS011;6026;48.784;9.198;2024-01-25T03:33:34;0.70;;;0.70;;
11933;SDS011;6026;48.784;9.198;2024-01-25T03:36:03;0.50;;;0.50;;
11933;SDS011;6026;48.784;9.198;2024-01-25T03:38:29;0.60;;;0.60;;
11933;SDS011;6026;48.784;9.198;2024-01-25T03:40:55;0.60;;;0.60;;
11933;SDS011;6026;48.784;9.198;2024-01-25T03:43:26;0.40;;;0.40;;
11933;SDS011;6026;48.784;9.198;2024-01-25T03:45:52;0.70;;;0.70;;
11933;SDS011;6026;48.784;9.198;2024-01-25T03:48:18;0.50;;;0.50;;
11933;SDS011;6026;48.784;9.198;2024-01-25T03:50:44;0.40;;;0.40;;
11933;SDS011;6026;48.784;9.198;2024-01-25T03:53:09;0.60;;;0.60;;
11933;SDS011;6026;48.784;9.198;2024-01-25T03:55:35;0.40;;;0.40;;
11933;SDS011;6026;48.784;9.198;2024-01-25T03:58:00;0.50;;;0.50;;
11933;SDS011;6026;48.784;9.198;2024-01-25T04:00:26;0.40;;;0.40;;
11933;SDS011;6026;48.784;9.198;2024-01-25T04:02:51;0.30;;;0.30;;
11933;SDS011;6026;48.784;9.198;2024-01-25T04:05:17;0.30;;;0.30;;
11933;SDS011;6026;48.784;9.198;2024-01-25T04:07:43;0.40;;;0.40;;
11933;SDS011;6026;48.784;9.198;2024-01-25T04:10:08;0.40;;;0.40;;
11933;SDS011;6026;48.784;9.198;2024-01-25T04:12:34;0.40;;;0.40;;
11933;SDS011;6026;48.784;9.198;2024-01-25T04:14:59;0.40;;;0.40;;
11933;SDS011;6026;48.784;9.198;2024-01-25T04:17:25;0.47;;;0.47;;
11933;SDS011;6026;48.784;9.198;2024-01-25T04:19:51;0.30;;;0.30;;
11933;SDS011;6026;48.784;9.198;2024-01-25T04:22:16;0.40;;;0.40;;
11933;SDS011;6026;48.784;9.198;2024-01-25T04:24:42;0.50;;;0.50;;
11933;SDS011;6026;48.784;9.198;2024-01-25T04:27:09;0.50;;;0.50;;
11933;SDS011;6026;48.784;9.198;2024-01-25T04:29:37;0.60;;;0.60;;
11933;SDS011;6026;48.784;9.198;2024-01-25T04:32:04;0.33;;;0.33;;
11933;SDS011;6026;48.784;9.198;2024-01-25T04:34:30;0.67;;;0.67;;
11933;SDS011;6026;48.784;9.198;2024-01-25T04:36:55;0.30;;;0.30;;
11933;SDS011;6026;48.784;9.198;2024-01-25T04:39:21;0.30;;;0.30;;
11933;SDS011;6026;48.784;9.198;2024-01-25T04:41:47;0.60;;;0.60;;
11933;SDS011;6026;48.784;9.198;2024-01-25T04:44:12;0.40;;;0.40;;
11933;SDS011;6026;48.784;9.198;2024-01-25T04:46:38;0.50;;;0.50;;
11933;SDS011;6026;48.784;9.198;2024-01-25T04:49:03;0.30;;;0.30;;
11933;SDS011;6026;48.784;9.198;2024-01-25T04:51:29;0.60;;;0.60;;
11933;SDS011;6026;48.784;9.198;2024-01-25T04:53:54;0.40;;;0.40;;
11933;SDS011;6026;48.784;9.198;2024-01-25T04:56:20;0.40;;;0.40;;
11933;SDS011;6026;48.784;9.198;2024-01-25T04:58:45;0.50;;;0.50;;
11933;SDS011;6026;48.784;9.198;2024-01-25T05:01:11;0.50;;;0.50;;
11933;SDS011;6026;48.784;9.198;2024-01-25T05:03:37;0.60;;;0.60;;
11933;SDS011;6026;48.784;9.198;2024-01-25T05:06:02;0.53;;;0.53;;
11933;SDS011;6026;48.784;9.198;2024-01-25T05:08:28;0.70;;;0.70;;
11933;SDS011;6026;48.784;9.198;2024-01-25T05:10:57;0.50;;;0.50;;
11933;SDS011;6026;48.784;9.198;2024-01-25T05:13:22;0.47;;;0.47;;
11933;SDS011;6026;48.784;9.198;2024-01-25T05:15:48;0.40;;;0.40;;
11933;SDS011;6026;48.784;9.198;2024-01-25T05:18:14;0.40;;;0.40;;
11933;SDS011;6026;48.784;9.198;2024-01-25T05:20:39;0.50;;;0.50;;
11933;SDS011;6026;48.784;9.198;2024-01-25T05:23:05;0.40;;;0.40;;
11933;SDS011;6026;48.784;9.198;2024-01-25T05:25:31;0.40;;;0.40;;
11933;SDS011;6026;48.784;9.198;2024-01-25T05:27:57;0.30;;;0.30;;
11933;SDS011;6026;48.784;9.198;2024-01-25T05:30:23;0.47;;;0.47;;
11933;SDS011;6026;48.784;9.198;2024-01-25T05:32:50;0.50;;;0.50;;
11933;SDS011;6026;48.784;9.198;2024-01-25T05:35:16;0.40;;;0.40;;
11933;SDS011;6026;48.784;9.198;2024-01-25T05:37:42;0.40;;;0.40;;
11933;SDS011;6026;48.784;9.198;2024-01-25T05:40:08;0.40;;;0.40;;
11933;SDS011;6026;48.784;9.198;2024-01-25T05:42:34;0.40;;;0.40;;
11933;SDS011;6026;48.784;9.198;2024-01-25T05:45:01;0.50;;;0.50;;
11933;SDS011;6026;48.784;9.198;2024-01-25T05:47:27;0.20;;;0.20;;
11933;SDS011;6026;48.784;9.198;2024-01-25T05:49:53;0.40;;;0.40;;
11933;SDS011;6026;48.784;9.198;2024-01-25T05:52:19;0.30;;;0.30;;
11933;SDS011;6026;48.784;9.198;2024-01-25T05:54:46;0.20;;;0.20;;
11933;SDS011;6026;48.784;9.198;2024-01-25T05:57:11;0.60;;;0.60;;
11933;SDS011;6026;48.784;9.198;2024-01-25T05:59:37;0.50;;;0.50;;
11933;SDS011;6026;48.784;9.198;2024-01-25T06:02:03;0.50;;;0.50;;
11933;SDS011;6026;48.784;9.198;2024-01-25T06:04:29;0.23;;;0.23;;
11933;SDS011;6026;48.784;9.198;2024-01-25T06:06:54;0.30;;;0.30;;
11933;SDS011;6026;48.784;9.198;2024-01-25T06:09:20;0.43;;;0.43;;
11933;SDS011;6026;48.784;9.198;2024-01-25T06:11:45;0.50;;;0.50;;
11933;SDS011;6026;48.784;9.198;2024-01-25T06:14:11;0.30;;;0.30;;
11933;SDS011;6026;48.784;9.198;2024-01-25T06:16:37;0.30;;;0.30;;
11933;SDS011;6026;48.784;9.198;2024-01-25T06:19:03;0.40;;;0.40;;
11933;SDS011;6026;48.784;9.198;2024-01-25T06:21:28;0.30;;;0.30;;
11933;SDS011;6026;48.784;9.198;2024-01-25T06:23:54;0.20;;;0.20;;
11933;SDS011;6026;48.784;9.198;2024-01-25T06:26:20;0.40;;;0.40;;
11933;SDS011;6026;48.784;9.198;2024-01-25T06:28:45;0.30;;;0.30;;
11933;SDS011;6026;48.784;9.198;2024-01-25T06:31:11;0.27;;;0.27;;
11933;SDS011;6026;48.784;9.198;2024-01-25T06:33:36;0.20;;;0.20;;
11933;SDS011;6026;48.784;9.198;2024-01-25T06:36:02;0.40;;;0.40;;
11933;SDS011;6026;48.784;9.198;2024-01-25T06:38:27;0.67;;;0.67;;
11933;SDS011;6026;48.784;9.198;2024-01-25T06:40:53;0.40;;;0.40;;
11933;SDS011;6026;48.784;9.198;2024-01-25T06:43:18;0.13;;;0.13;;
11933;SDS011;6026;48.784;9.198;2024-01-25T06:45:44;0.30;;;0.30;;
11933;SDS011;6026;48.784;9.198;2024-01-25T06:48:10;0.30;;;0.30;;
11933;SDS011;6026;48.784;9.198;2024-01-25T06:50:36;0.50;;;0.50;;
11933;SDS011;6026;48.784;9.198;2024-01-25T06:53:02;0.20;;;0.20;;
11933;SDS011;6026;48.784;9.198;2024-01-25T06:55:28;0.40;;;0.40;;
11933;SDS011;6026;48.784;9.198;2024-01-25T06:57:54;0.30;;;0.30;;
11933;SDS011;6026;48.784;9.198;2024-01-25T07:00:19;0.40;;;0.40;;
11933;SDS011;6026;48.784;9.198;2024-01-25T07:02:46;0.33;;;0.33;;
11933;SDS011;6026;48.784;9.198;2024-01-25T07:05:12;0.17;;;0.17;;
11933;SDS011;6026;48.784;9.198;2024-01-25T07:07:38;0.20;;;0.20;;
11933;SDS011;6026;48.784;9.198;2024-01-25T07:10:04;0.30;;;0.30;;
11933;SDS011;6026;48.784;9.198;2024-01-25T07:12:32;0.50;;;0.50;;
11933;SDS011;6026;48.784;9.198;2024-01-25T07:14:58;0.20;;;0.20;;
11933;SDS011;6026;48.784;9.198;2024-01-25T07:17:24;0.30;;;0.30;;
11933;SDS011;6026;48.784;9.198;2024-01-25T07:19:49;0.40;;;0.40;;
11933;SDS011;6026;48.784;9.198;2024-01-25T07:22:15;0.20;;;0.20;;
11933;SDS011;6026;48.784;9.198;2024-01-25T07:24:42;0.30;;;0.30;;
11933;SDS011;6026;48.784;9.198;2024-01-25T07:27:07;0.30;;;0.30;;
11933;SDS011;6026;48.784;9.198;2024-01-25T07:29:34;0.50;;;0.50;;
11933;SDS011;6026;48.784;9.198;2024-01-25T07:32:01;0.30;;;0.30;;
11933;SDS011;6026;48.784;9.198;2024-01-25T07:34:27;0.20;;;0.20;;
11933;SDS011;6026;48.784;9.198;2024-01-25T07:36:53;0.40;;;0.40;;
11933;SDS011;6026;48.784;9.198;2024-01-25T07:39:18;0.40;;;0.40;;
11933;SDS011;6026;48.784;9.198;2024-01-25T07:41:44;0.30;;;0.30;;
11933;SDS011;6026;48.784;9.198;2024-01-25T07:44:09;0.30;;;0.30;;
11933;SDS011;6026;48.784;9.198;2024-01-25T07:46:35;0.20;;;0.20;;
11933;SDS011;6026;48.784;9.198;2024-01-25T07:49:00;0.40;;;0.40;;
11933;SDS011;6026;48.784;9.198;2024-01-25T07:51:26;0.70;;;0.70;;
11933;SDS011;6026;48.784;9.198;2024-01-25T07:53:53;0.20;;;0.20;;
11933;SDS011;6026;48.784;9.198;2024-01-25T07:56:19;0.40;;;0.40;;
11933;SDS011;6026;48.784;9.198;2024-01-25T07:58:46;0.30;;;0.30;;
11933;SDS011;6026;48.784;9.198;2024-01-25T08:01:13;0.60;;;0.60;;
11933;SDS011;6026;48.784;9.198;2024-01-25T08:03:43;0.50;;;0.50;;
11933;SDS011;6026;48.784;9.198;2024-01-25T08:06:08;0.50;;;0.50;;
11933;SDS011;6026;48.784;9.198;2024-01-25T08:08:34;0.50;;;0.50;;
11933;SDS011;6026;48.784;9.198;2024-01-25T08:10:59;0.40;;;0.40;;
11933;SDS011;6026;48.784;9.198;2024-01-25T08:13:25;0.40;;;0.40;;
11933;SDS011;6026;48.784;9.198;2024-01-25T08:15:53;0.40;;;0.40;;
11933;SDS011;6026;48.784;9.198;2024-01-25T08:18:19;0.40;;;0.40;;
11933;SDS011;6026;48.784;9.198;2024-01-25T08:20:44;0.40;;;0.40;;
11933;SDS011;6026;48.784;9.198;2024-01-25T08:23:10;0.60;;;0.60;;
11933;SDS011;6026;48.784;9.198;2024-01-25T08:25:36;0.60;;;0.60;;
11933;SDS011;6026;48.784;9.198;2024-01-25T08:28:01;0.50;;;0.50;;
11933;SDS011;6026;48.784;9.198;2024-01-25T08:30:27;0.60;;;0.60;;
11933;SDS011;6026;48.784;9.198;2024-01-25T08:32:53;0.40;;;0.40;;
11933;SDS011;6026;48.784;9.198;2024-01-25T08:35:18;0.37;;;0.37;;
11933;SDS011;6026;48.784;9.198;2024-01-25T08:37:44;0.73;;;0.73;;
11933;SDS011;6026;48.784;9.198;2024-01-25T08:40:09;0.30;;;0.30;;
11933;SDS011;6026;48.784;9.198;2024-01-25T08:42:35;0.70;;;0.70;;
11933;SDS011;6026;48.784;9.198;2024-01-25T08:45:01;0.60;;;0.60;;
11933;SDS011;6026;48.784;9.198;2024-01-25T08:47:27;0.50;;;0.50;;
11933;SDS011;6026;48.784;9.198;2024-01-25T08:49:52;0.70;;;0.70;;
11933;SDS011;6026;48.784;9.198;2024-01-25T08:52:18;0.53;;;0.53;;
11933;SDS011;6026;48.784;9.198;2024-01-25T08:54:44;0.50;;;0.50;;
11933;SDS011;6026;48.784;9.198;2024-01-25T08:57:09;0.70;;;0.70;;
11933;SDS011;6026;48.784;9.198;2024-01-25T08:59:35;1.20;;;1.20;;
11933;SDS011;6026;48.784;9.198;2024-01-25T09:02:03;0.73;;;0.73;;
11933;SDS011;6026;48.784;9.198;2024-01-25T09:04:30;0.70;;;0.70;;
11933;SDS011;6026;48.784;9.198;2024-01-25T09:06:55;0.70;;;0.70;;
11933;SDS011;6026;48.784;9.198;2024-01-25T09:09:21;0.70;;;0.70;;
11933;SDS011;6026;48.784;9.198;2024-01-25T09:11:46;0.80;;;0.80;;
11933;SDS011;6026;48.784;9.198;2024-01-25T09:14:12;0.80;;;0.80;;
11933;SDS011;6026;48.784;9.198;2024-01-25T09:16:38;0.70;;;0.70;;
11933;SDS011;6026;48.784;9.198;2024-01-25T09:19:03;0.70;;;0.70;;
11933;SDS011;6026;48.784;9.198;2024-01-25T09:21:29;0.70;;;0.70;;
11933;SDS011;6026;48.784;9.198;2024-01-25T09:23:55;0.80;;;0.80;;
11933;SDS011;6026;48.784;9.198;2024-01-25T09:26:21;0.70;;;0.70;;
11933;SDS011;6026;48.784;9.198;2024-01-25T09:28:46;0.70;;;0.70;;
11933;SDS011;6026;48.784;9.198;2024-01-25T09:31:12;0.80;;;0.80;;
11933;SDS011;6026;48.784;9.198;2024-01-25T09:33:37;0.77;;;0.77;;
11933;SDS011;6026;48.784;9.198;2024-01-25T09:36:03;0.70;;;0.70;;
11933;SDS011;6026;48.784;9.198;2024-01-25T09:38:29;0.80;;;0.80;;
11933;SDS011;6026;48.784;9.198;2024-01-25T09:40:55;0.90;;;0.90;;
11933;SDS011;6026;48.784;9.198;2024-01-25T09:43:21;0.80;;;0.80;;
11933;SDS011;6026;48.784;9.198;2024-01-25T09:45:48;0.80;;;0.80;;
11933;SDS011;6026;48.784;9.198;2024-01-25T09:48:19;0.90;;;0.90;;
11933;SDS011;6026;48.784;9.198;2024-01-25T09:50:46;0.80;;;0.80;;
11933;SDS011;6026;48.784;9.198;2024-01-25T09:53:13;0.80;;;0.80;;
11933;SDS011;6026;48.784;9.198;2024-01-25T09:55:45;0.90;;;0.90;;
11933;SDS011;6026;48.784;9.198;2024-01-25T09:58:17;1.00;;;1.00;;
11933;SDS011;6026;48.784;9.198;2024-01-25T10:00:44;0.90;;;0.90;;
11933;SDS011;6026;48.784;9.198;2024-01-25T10:03:10;0.80;;;0.80;;
11933;SDS011;6026;48.784;9.198;2024-01-25T10:05:35;0.90;;;0.90;;
11933;SDS011;6026;48.784;9.198;2024-01-25T10:08:01;0.90;;;0.90;;
11933;SDS011;6026;48.784;9.198;2024-01-25T10:10:26;0.90;;;0.90;;
11933;SDS011;6026;48.784;9.198;2024-01-25T10:12:55;0.90;;;0.90;;
11933;SDS011;6026;48.784;9.198;2024-01-25T10:15:20;0.80;;;0.80;;
11933;SDS011;6026;48.784;9.198;2024-01-25T10:17:48;0.90;;;0.90;;
11933;SDS011;6026;48.784;9.198;2024-01-25T10:20:14;0.80;;;0.80;;
11933;SDS011;6026;48.784;9.198;2024-01-25T10:22:40;0.80;;;0.80;;
11933;SDS011;6026;48.784;9.198;2024-01-25T10:25:17;0.80;;;0.80;;
11933;SDS011;6026;48.784;9.198;2024-01-25T10:27:42;0.80;;;0.80;;
11933;SDS011;6026;48.784;9.198;2024-01-25T10:30:08;0.70;;;0.70;;
11933;SDS011;6026;48.784;9.198;2024-01-25T10:32:35;0.80;;;0.80;;
11933;SDS011;6026;48.784;9.198;2024-01-25T10:35:01;0.80;;;0.80;;
11933;SDS011;6026;48.784;9.198;2024-01-25T10:37:27;0.70;;;0.70;;
11933;SDS011;6026;48.784;9.198;2024-01-25T10:39:54;0.80;;;0.80;;
11933;SDS011;6026;48.784;9.198;2024-01-25T10:42:20;0.80;;;0.80;;
11933;SDS011;6026;48.784;9.198;2024-01-25T10:44:46;0.80;;;0.80;;
11933;SDS011;6026;48.784;9.198;2024-01-25T10:47:12;0.80;;;0.80;;
11933;SDS011;6026;48.784;9.198;2024-01-25T10:49:37;0.90;;;0.90;;
11933;SDS011;6026;48.784;9.198;2024-01-25T10:52:04;0.80;;;0.80;;
11933;SDS011;6026;48.784;9.198;2024-01-25T10:54:31;0.90;;;0.90;;
11933;SDS011;6026;48.784;9.198;2024-01-25T10:56:56;0.90;;;0.90;;
11933;SDS011;6026;48.784;9.198;2024-01-25T10:59:23;0.90;;;0.90;;
11933;SDS011;6026;48.784;9.198;2024-01-25T11:01:50;0.90;;;0.90;;
11933;SDS011;6026;48.784;9.198;2024-01-25T11:04:16;0.90;;;0.90;;
11933;SDS011;6026;48.784;9.198;2024-01-25T11:06:46;0.90;;;0.90;;
11933;SDS011;6026;48.784;9.198;2024-01-25T11:11:49;0.90;;;0.90;;
11933;SDS011;6026;48.784;9.198;2024-01-25T11:14:15;0.90;;;0.90;;
11933;SDS011;6026;48.784;9.198;2024-01-25T11:16:42;0.73;;;0.73;;
11933;SDS011;6026;48.784;9.198;2024-01-25T11:19:18;0.90;;;0.90;;
11933;SDS011;6026;48.784;9.198;2024-01-25T11:21:47;0.90;;;0.90;;
11933;SDS011;6026;48.784;9.198;2024-01-25T11:24:24;1.00;;;1.00;;
11933;SDS011;6026;48.784;9.198;2024-01-25T11:26:54;1.00;;;1.00;;
11933;SDS011;6026;48.784;9.198;2024-01-25T11:29:20;0.90;;;0.90;;
11933;SDS011;6026;48.784;9.198;2024-01-25T11:31:49;0.83;;;0.83;;
11933;SDS011;6026;48.784;9.198;2024-01-25T11:34:16;0.67;;;0.67;;
11933;SDS011;6026;48.784;9.198;2024-01-25T11:36:43;0.90;;;0.90;;
11933;SDS011;6026;48.784;9.198;2024-01-25T11:39:09;1.00;;;1.00;;
11933;SDS011;6026;48.784;9.198;2024-01-25T11:41:36;1.00;;;1.00;;
11933;SDS011;6026;48.784;9.198;2024-01-25T11:44:02;0.87;;;0.87;;
11933;SDS011;6026;48.784;9.198;2024-01-25T11:46:28;0.70;;;0.70;;
11933;SDS011;6026;48.784;9.198;2024-01-25T11:48:55;0.90;;;0.90;;
11933;SDS011;6026;48.784;9.198;2024-01-25T11:51:20;0.70;;;0.70;;
11933;SDS011;6026;48.784;9.198;2024-01-25T11:53:46;0.70;;;0.70;;
11933;SDS011;6026;48.784;9.198;2024-01-25T11:56:13;0.90;;;0.90;;
11933;SDS011;6026;48.784;9.198;2024-01-25T11:58:41;0.80;;;0.80;;
11933;SDS011;6026;48.784;9.198;2024-01-25T12:01:08;0.80;;;0.80;;
11933;SDS011;6026;48.784;9.198;2024-01-25T12:03:35;0.80;;;0.80;;
11933;SDS011;6026;48.784;9.198;2024-01-25T12:06:02;0.70;;;0.70;;
11933;SDS011;6026;48.784;9.198;2024-01-25T12:08:29;1.00;;;1.00;;
11933;SDS011;6026;48.784;9.198;2024-01-25T12:11:06;0.90;;;0.90;;
11933;SDS011;6026;48.784;9.198;2024-01-25T12:13:33;0.90;;;0.90;;
11933;SDS011;6026;48.784;9.198;2024-01-25T12:16:00;0.83;;;0.83;;
11933;SDS011;6026;48.784;9.198;2024-01-25T12:18:27;0.83;;;0.83;;
11933;SDS011;6026;48.784;9.198;2024-01-25T12:20:53;0.90;;;0.90;;
11933;SDS011;6026;48.784;9.198;2024-01-25T12:23:19;0.77;;;0.77;;
11933;SDS011;6026;48.784;9.198;2024-01-25T12:25:45;0.80;;;0.80;;
11933;SDS011;6026;48.784;9.198;2024-01-25T12:28:11;0.80;;;0.80;;
11933;SDS011;6026;48.784;9.198;2024-01-25T12:30:36;0.80;;;0.80;;
11933;SDS011;6026;48.784;9.198;2024-01-25T12:33:02;0.93;;;0.93;;
11933;SDS011;6026;48.784;9.198;2024-01-25T12:35:28;0.73;;;0.73;;
11933;SDS011;6026;48.784;9.198;2024-01-25T12:37:54;0.80;;;0.80;;
11933;SDS011;6026;48.784;9.198;2024-01-25T12:40:20;0.77;;;0.77;;
11933;SDS011;6026;48.784;9.198;2024-01-25T12:42:45;0.80;;;0.80;;
11933;SDS011;6026;48.784;9.198;2024-01-25T12:45:11;0.80;;;0.80;;
11933;SDS011;6026;48.784;9.198;2024-01-25T12:47:36;0.80;;;0.80;;
11933;SDS011;6026;48.784;9.198;2024-01-25T12:50:02;0.80;;;0.80;;
11933;SDS011;6026;48.784;9.198;2024-01-25T12:52:28;0.87;;;0.87;;
11933;SDS011;6026;48.784;9.198;2024-01-25T12:54:54;0.77;;;0.77;;
11933;SDS011;6026;48.784;9.198;2024-01-25T12:57:20;0.90;;;0.90;;
11933;SDS011;6026;48.784;9.198;2024-01-25T12:59:45;0.80;;;0.80;;
11933;SDS011;6026;48.784;9.198;2024-01-25T13:02:12;0.90;;;0.90;;
11933;SDS011;6026;48.784;9.198;2024-01-25T13:04:38;0.93;;;0.93;;
11933;SDS011;6026;48.784;9.198;2024-01-25T13:07:03;0.90;;;0.90;;
11933;SDS011;6026;48.784;9.198;2024-01-25T13:09:29;0.70;;;0.70;;
11933;SDS011;6026;48.784;9.198;2024-01-25T13:11:58;0.73;;;0.73;;
11933;SDS011;6026;48.784;9.198;2024-01-25T13:14:24;0.90;;;0.90;;
11933;SDS011;6026;48.784;9.198;2024-01-25T13:16:49;0.90;;;0.90;;
11933;SDS011;6026;48.784;9.198;2024-01-25T13:19:15;0.90;;;0.90;;
11933;SDS011;6026;48.784;9.198;2024-01-25T13:21:41;0.80;;;0.80;;
11933;SDS011;6026;48.784;9.198;2024-01-25T13:24:07;0.80;;;0.80;;
11933;SDS011;6026;48.784;9.198;2024-01-25T13:26:33;0.70;;;0.70;;
11933;SDS011;6026;48.784;9.198;2024-01-25T13:29:00;0.80;;;0.80;;
11933;SDS011;6026;48.784;9.198;2024-01-25T13:31:25;0.90;;;0.90;;
11933;SDS011;6026;48.784;9.198;2024-01-25T13:33:51;0.90;;;0.90;;
11933;SDS011;6026;48.784;9.198;2024-01-25T13:36:17;0.80;;;0.80;;
11933;SDS011;6026;48.784;9.198;2024-01-25T13:38:42;0.80;;;0.80;;
11933;SDS011;6026;48.784;9.198;2024-01-25T13:41:08;0.80;;;0.80;;
11933;SDS011;6026;48.784;9.198;2024-01-25T13:43:33;0.90;;;0.90;;
11933;SDS011;6026;48.784;9.198;2024-01-25T13:45:59;0.80;;;0.80;;
11933;SDS011;6026;48.784;9.198;2024-01-25T13:48:24;0.80;;;0.80;;
11933;SDS011;6026;48.784;9.198;2024-01-25T13:50:51;0.70;;;0.70;;
11933;SDS011;6026;48.784;9.198;2024-01-25T13:53:16;0.90;;;0.90;;
11933;SDS011;6026;48.784;9.198;2024-01-25T13:55:42;0.80;;;0.80;;
11933;SDS011;6026;48.784;9.198;2024-01-25T13:58:08;0.90;;;0.90;;
11933;SDS011;6026;48.784;9.198;2024-01-25T14:00:34;0.90;;;0.90;;
11933;SDS011;6026;48.784;9.198;2024-01-25T14:02:59;0.90;;;0.90;;
11933;SDS011;6026;48.784;9.198;2024-01-25T14:05:25;0.80;;;0.80;;
11933;SDS011;6026;48.784;9.198;2024-01-25T14:07:50;0.90;;;0.90;;
11933;SDS011;6026;48.784;9.198;2024-01-25T14:10:16;0.80;;;0.80;;
11933;SDS011;6026;48.784;9.198;2024-01-25T14:12:41;0.70;;;0.70;;
11933;SDS011;6026;48.784;9.198;2024-01-25T14:15:08;0.70;;;0.70;;
11933;SDS011;6026;48.784;9.198;2024-01-25T14:17:34;0.90;;;0.90;;
11933;SDS011;6026;48.784;9.198;2024-01-25T14:20:01;0.90;;;0.90;;
11933;SDS011;6026;48.784;9.198;2024-01-25T14:22:28;0.90;;;0.90;;
11933;SDS011;6026;48.784;9.198;2024-01-25T14:24:53;0.80;;;0.80;;
11933;SDS011;6026;48.784;9.198;2024-01-25T14:27:19;0.90;;;0.90;;
11933;SDS011;6026;48.784;9.198;2024-01-25T14:29:44;0.80;;;0.80;;
11933;SDS011;6026;48.784;9.198;2024-01-25T14:32:10;0.57;;;0.57;;
11933;SDS011;6026;48.784;9.198;2024-01-25T14:34:36;0.90;;;0.90;;
11933;SDS011;6026;48.784;9.198;2024-01-25T14:37:01;0.80;;;0.80;;
11933;SDS011;6026;48.784;9.198;2024-01-25T14:39:27;0.80;;;0.80;;
11933;SDS011;6026;48.784;9.198;2024-01-25T14:41:52;0.90;;;0.90;;
11933;SDS011;6026;48.784;9.198;2024-01-25T14:44:19;0.80;;;0.80;;
11933;SDS011;6026;48.784;9.198;2024-01-25T14:46:45;0.90;;;0.90;;
11933;SDS011;6026;48.784;9.198;2024-01-25T14:49:10;0.80;;;0.80;;
11933;SDS011;6026;48.784;9.198;2024-01-25T14:51:36;0.73;;;0.73;;
11933;SDS011;6026;48.784;9.198;2024-01-25T14:54:02;0.97;;;0.97;;
11933;SDS011;6026;48.784;9.198;2024-01-25T14:56:27;0.80;;;0.80;;